createdAt,value
2022-09-26T00:02:04.898Z,91.23
2022-09-26T00:04:34.733Z,91.67
2022-09-26T00:07:04.626Z,91.81
2022-09-26T00:09:34.317Z,91.53
2022-09-26T00:12:05.370Z,91.58
2022-09-26T00:14:36.462Z,91.69
2022-09-26T00:17:10.263Z,92.06
2022-09-26T00:19:40.232Z,91.46
2022-09-26T00:22:10.002Z,91.42
2022-09-26T00:24:39.785Z,91.24
2022-09-26T00:27:10.344Z,91.94
2022-09-26T00:29:40.616Z,92.11
2022-09-26T00:32:10.944Z,91.84
2022-09-26T00:34:41.728Z,91.82
2022-09-26T00:37:11.548Z,92.00
2022-09-26T00:39:41.313Z,92.06
2022-09-26T00:42:17.431Z,92.28
2022-09-26T00:44:52.207Z,92.65
2022-09-26T00:47:46.290Z,93.04
2022-09-26T00:50:27.573Z,92.93
2022-09-26T00:53:06.182Z,93.04
2022-09-26T00:55:41.083Z,93.34
2022-09-26T00:58:20.324Z,93.28
2022-09-26T01:00:53.412Z,93.46
2022-09-26T01:03:26.124Z,93.60
2022-09-26T01:05:56.504Z,93.16
2022-09-26T01:08:40.023Z,93.08
2022-09-26T01:11:16.170Z,93.49
2022-09-26T01:13:47.330Z,93.43
2022-09-26T01:16:17.133Z,93.68
2022-09-26T01:18:47.607Z,93.64
2022-09-26T01:21:19.887Z,93.60
2022-09-26T01:24:12.442Z,93.64
2022-09-26T01:26:54.786Z,93.64
2022-09-26T01:29:51.867Z,93.77
2022-09-26T01:32:53.184Z,94.01
2022-09-26T01:35:53.235Z,94.06
2022-09-26T01:38:31.916Z,94.04
2022-09-26T01:41:10.985Z,93.67
2022-09-26T01:44:09.174Z,93.72
2022-09-26T01:46:57.190Z,93.75
2022-09-26T01:49:33.585Z,93.59
2022-09-26T01:52:22.258Z,93.61
2022-09-26T01:55:18.196Z,93.61
2022-09-26T01:57:56.898Z,93.34
2022-09-26T02:00:27.115Z,92.96
2022-09-26T02:03:01.672Z,92.17
2022-09-26T02:05:36.882Z,91.46
2022-09-26T02:08:25.584Z,90.72
2022-09-26T02:11:07.593Z,90.06
2022-09-26T02:13:53.085Z,89.68
2022-09-26T02:16:30.230Z,89.39
2022-09-26T02:19:07.259Z,89.09
2022-09-26T02:21:38.185Z,89.08
2022-09-26T02:24:08.168Z,88.41
2022-09-26T02:26:38.261Z,87.82
2022-09-26T02:29:09.405Z,89.25
2022-09-26T02:32:04.561Z,88.55
2022-09-26T02:34:35.266Z,89.13
2022-09-26T02:37:06.706Z,89.08
2022-09-26T02:39:38.219Z,89.40
2022-09-26T02:42:30.335Z,89.58
2022-09-26T02:45:07.356Z,89.67
2022-09-26T02:48:09.317Z,89.73
2022-09-26T02:51:16.080Z,89.66
2022-09-26T02:53:53.385Z,89.12
2022-09-26T02:56:44.669Z,89.91
2022-09-26T02:59:50.366Z,89.93
2022-09-26T03:02:36.269Z,90.54
2022-09-26T03:05:27.412Z,90.60
2022-09-26T03:08:10.377Z,90.79
2022-09-26T03:10:43.860Z,91.30
2022-09-26T03:13:16.514Z,91.32
2022-09-26T03:15:53.275Z,92.22
2022-09-26T03:18:37.872Z,92.15
2022-09-26T03:21:09.334Z,91.93
2022-09-26T03:23:40.195Z,92.04
2022-09-26T03:26:25.674Z,92.05
2022-09-26T03:29:00.353Z,92.10
2022-09-26T03:31:32.953Z,92.28
2022-09-26T03:34:12.655Z,93.04
2022-09-26T03:36:42.528Z,93.35
2022-09-26T03:39:14.752Z,93.53
2022-09-26T03:41:53.325Z,93.09
2022-09-26T03:44:31.487Z,93.13
2022-09-26T03:47:10.516Z,93.08
2022-09-26T03:49:46.428Z,93.31
2022-09-26T03:52:16.353Z,93.53
2022-09-26T03:54:47.973Z,93.58
2022-09-26T03:57:19.204Z,93.75
2022-09-26T03:59:56.333Z,94.09
2022-09-26T04:02:29.806Z,93.13
2022-09-26T04:05:15.031Z,93.96
2022-09-26T04:07:46.771Z,94.20
2022-09-26T04:10:17.400Z,94.37
2022-09-26T04:12:47.145Z,94.28
2022-09-26T04:15:18.290Z,94.42
2022-09-26T04:17:48.383Z,94.29
2022-09-26T04:20:21.554Z,94.27
2022-09-26T04:22:52.080Z,94.38
2022-09-26T04:25:21.774Z,94.49
2022-09-26T04:27:53.442Z,94.51
2022-09-26T04:30:24.166Z,94.34
2022-09-26T04:32:58.420Z,94.08
2022-09-26T04:35:45.649Z,94.16
2022-09-26T04:38:16.342Z,94.49
2022-09-26T04:40:47.368Z,94.89
2022-09-26T04:43:18.257Z,94.68
2022-09-26T04:45:48.506Z,94.52
2022-09-26T04:48:18.735Z,94.63
2022-09-26T04:51:09.482Z,94.64
2022-09-26T04:53:40.600Z,94.48
2022-09-26T04:56:19.733Z,94.40
2022-09-26T04:58:50.549Z,94.71
2022-09-26T05:01:22.291Z,94.65
2022-09-26T05:04:16.248Z,94.54
2022-09-26T05:06:46.349Z,94.47
2022-09-26T05:09:25.302Z,94.62
2022-09-26T05:12:00.914Z,94.37
2022-09-26T05:14:31.999Z,94.51
2022-09-26T05:17:03.177Z,94.54
2022-09-26T05:19:34.005Z,94.77
2022-09-26T05:22:33.539Z,94.81
2022-09-26T05:25:24.535Z,94.75
2022-09-26T05:27:54.929Z,94.77
2022-09-26T05:30:26.970Z,94.85
2022-09-26T05:32:58.918Z,94.85
2022-09-26T05:35:29.226Z,95.12
2022-09-26T05:38:05.909Z,95.30
2022-09-26T05:40:57.080Z,95.42
2022-09-26T05:43:37.171Z,95.45
2022-09-26T05:46:12.739Z,95.35
2022-09-26T05:48:49.257Z,95.47
2022-09-26T05:51:23.239Z,95.63
2022-09-26T05:53:54.710Z,95.93
2022-09-26T05:56:27.870Z,96.30
2022-09-26T05:59:20.323Z,96.52
2022-09-26T06:02:28.773Z,96.65
2022-09-26T06:05:17.282Z,96.68
2022-09-26T06:08:05.633Z,96.64
2022-09-26T06:10:59.680Z,96.69
2022-09-26T06:13:31.582Z,96.65
2022-09-26T06:16:12.625Z,96.62
2022-09-26T06:18:43.254Z,96.55
2022-09-26T06:21:15.539Z,96.82
2022-09-26T06:23:47.002Z,96.90
2022-09-26T06:26:24.682Z,96.82
2022-09-26T06:29:01.734Z,96.70
2022-09-26T06:31:36.298Z,96.64
2022-09-26T06:34:14.120Z,96.67
2022-09-26T06:36:52.877Z,96.74
2022-09-26T06:39:23.280Z,96.83
2022-09-26T06:41:53.163Z,96.86
2022-09-26T06:44:45.718Z,96.72
2022-09-26T06:47:38.467Z,96.78
2022-09-26T06:50:27.457Z,96.75
2022-09-26T06:53:13.379Z,96.59
2022-09-26T06:55:43.332Z,96.40
2022-09-26T06:58:13.313Z,96.30
2022-09-26T07:01:03.677Z,96.29
2022-09-26T07:03:54.287Z,96.33
2022-09-26T07:06:53.430Z,96.49
2022-09-26T07:09:23.794Z,96.48
2022-09-26T07:12:13.957Z,96.33
2022-09-26T07:14:47.905Z,96.38
2022-09-26T07:17:28.252Z,96.62
2022-09-26T07:20:19.373Z,96.50
2022-09-26T07:23:21.852Z,96.56
2022-09-26T07:25:54.260Z,96.54
2022-09-26T07:28:24.117Z,96.76
2022-09-26T07:30:59.028Z,96.84
2022-09-26T07:33:55.122Z,96.80
2022-09-26T07:36:25.533Z,96.92
2022-09-26T07:38:56.081Z,97.04
2022-09-26T07:41:25.867Z,97.22
2022-09-26T07:47:03.901Z,97.32
2022-09-26T07:49:52.209Z,97.17
2022-09-26T07:52:51.022Z,97.17
2022-09-26T07:56:00.798Z,97.25
2022-09-26T07:58:55.523Z,97.07
2022-09-26T08:01:42.339Z,96.94
2022-09-26T08:04:49.047Z,96.82
2022-09-26T08:07:22.352Z,96.72
2022-09-26T08:10:05.269Z,96.42
2022-09-26T08:13:02.732Z,96.40
2022-09-26T08:16:05.852Z,96.67
2022-09-26T08:18:42.093Z,96.33
2022-09-26T08:21:12.444Z,96.29
2022-09-26T08:23:42.146Z,96.41
2022-09-26T08:26:30.360Z,96.29
2022-09-26T08:29:07.729Z,96.17
2022-09-26T08:31:37.874Z,96.32
2022-09-26T08:34:09.035Z,96.70
2022-09-26T08:36:39.166Z,96.54
2022-09-26T08:39:31.232Z,96.45
2022-09-26T08:42:44.447Z,96.01
2022-09-26T08:46:08.608Z,96.43
2022-09-26T08:49:23.443Z,96.40
2022-09-26T08:51:57.572Z,96.34
2022-09-26T08:54:37.612Z,96.45
2022-09-26T08:57:27.789Z,96.03
2022-09-26T08:59:57.910Z,95.95
2022-09-26T09:02:53.089Z,96.31
2022-09-26T09:05:28.555Z,96.05
2022-09-26T09:08:00.733Z,96.22
2022-09-26T09:10:47.171Z,96.04
2022-09-26T09:13:46.802Z,96.08
2022-09-26T09:17:03.254Z,96.11
2022-09-26T09:20:27.698Z,95.94
2022-09-26T09:23:54.087Z,95.89
2022-09-26T09:30:00.054Z,95.80
2022-09-26T09:33:02.334Z,95.71
2022-09-26T09:36:15.967Z,95.88
2022-09-26T09:39:09.412Z,95.83
2022-09-26T09:41:59.711Z,96.00
2022-09-26T09:44:40.962Z,96.07
2022-09-26T09:47:20.549Z,96.04
2022-09-26T09:49:53.090Z,95.78
2022-09-26T09:52:47.406Z,95.59
2022-09-26T09:55:54.121Z,95.74
2022-09-26T09:58:47.513Z,95.72
2022-09-26T10:01:42.764Z,95.73
2022-09-26T10:04:37.443Z,95.52
2022-09-26T10:07:08.229Z,95.25
2022-09-26T10:09:43.175Z,94.85
2022-09-26T10:12:34.152Z,94.35
2022-09-26T10:15:28.608Z,93.90
2022-09-26T10:18:25.649Z,93.85
2022-09-26T10:21:18.937Z,93.35
2022-09-26T10:23:51.792Z,93.00
2022-09-26T10:26:53.808Z,93.15
2022-09-26T10:29:37.871Z,92.91
2022-09-26T10:32:10.744Z,92.61
2022-09-26T10:34:43.990Z,91.37
2022-09-26T10:37:26.904Z,90.66
2022-09-26T10:40:43.188Z,90.02
2022-09-26T10:43:53.248Z,90.33
2022-09-26T10:46:52.518Z,89.50
2022-09-26T10:49:54.319Z,90.97
2022-09-26T10:52:46.855Z,90.22
2022-09-26T10:55:38.800Z,85.64
2022-09-26T10:58:18.489Z,84.02
2022-09-26T11:00:54.088Z,84.37
2022-09-26T11:03:42.375Z,79.69
2022-09-26T11:06:38.162Z,77.91
2022-09-26T11:09:25.021Z,75.91
2022-09-26T11:12:30.682Z,78.09
2022-09-26T11:15:14.944Z,76.78
2022-09-26T11:17:50.816Z,78.15
2022-09-26T11:20:48.935Z,78.75
2022-09-26T11:23:42.655Z,76.73
2022-09-26T11:26:36.838Z,78.56
2022-09-26T11:29:35.544Z,78.20
2022-09-26T11:32:21.171Z,78.92
2022-09-26T11:35:04.270Z,80.20
2022-09-26T11:38:15.653Z,78.19
2022-09-26T11:41:08.334Z,77.83
2022-09-26T11:43:50.159Z,77.94
2022-09-26T11:47:15.373Z,78.86
2022-09-26T11:50:04.589Z,76.41
2022-09-26T11:53:04.254Z,73.54
2022-09-26T11:55:53.963Z,72.14
2022-09-26T11:58:49.201Z,71.84
2022-09-26T12:01:31.953Z,70.71
2022-09-26T12:04:28.763Z,70.70
2022-09-26T12:07:12.143Z,71.44
2022-09-26T12:10:02.950Z,72.07
2022-09-26T12:12:42.577Z,70.63
2022-09-26T12:15:30.736Z,71.62
2022-09-26T12:18:29.872Z,68.46
2022-09-26T12:21:23.872Z,67.81
2022-09-26T12:23:58.467Z,69.26
2022-09-26T12:26:31.275Z,69.42
2022-09-26T12:29:19.364Z,67.51
2022-09-26T12:31:51.756Z,69.58
2022-09-26T12:34:38.695Z,66.21
2022-09-26T12:37:20.352Z,66.88
2022-09-26T12:40:12.076Z,66.66
2022-09-26T12:43:06.294Z,68.59
2022-09-26T12:45:58.331Z,66.13
2022-09-26T12:49:12.106Z,70.70
2022-09-26T12:51:44.345Z,65.93
2022-09-26T12:54:38.268Z,64.68
2022-09-26T12:57:26.077Z,69.13
2022-09-26T13:00:01.500Z,68.31
2022-09-26T13:02:42.823Z,68.96
2022-09-26T13:05:51.420Z,66.72
2022-09-26T13:08:59.924Z,70.40
2022-09-26T13:11:58.222Z,67.93
2022-09-26T13:15:01.925Z,68.40
2022-09-26T13:17:42.813Z,65.56
2022-09-26T13:20:19.955Z,67.58
2022-09-26T13:22:56.058Z,68.40
2022-09-26T13:25:38.245Z,68.54
2022-09-26T13:28:31.641Z,69.80
2022-09-26T13:31:06.841Z,68.99
2022-09-26T13:33:44.029Z,68.36
2022-09-26T13:36:15.691Z,69.67
2022-09-26T13:38:52.771Z,69.51
2022-09-26T13:41:37.734Z,68.53
2022-09-26T13:44:29.586Z,67.08
2022-09-26T13:47:15.329Z,66.87
2022-09-26T13:49:56.430Z,66.88
2022-09-26T13:52:32.786Z,68.78
2022-09-26T13:55:16.319Z,68.49
2022-09-26T13:57:54.458Z,67.21
2022-09-26T14:00:39.552Z,67.40
2022-09-26T14:03:16.615Z,67.94
2022-09-26T14:05:49.027Z,68.60
2022-09-26T14:08:55.937Z,69.93
2022-09-26T14:11:31.939Z,67.64
2022-09-26T14:14:20.346Z,66.68
2022-09-26T14:17:04.386Z,66.47
2022-09-26T14:19:50.833Z,62.98
2022-09-26T14:22:21.862Z,61.70
2022-09-26T14:24:52.847Z,62.33
2022-09-26T14:27:38.000Z,64.03
2022-09-26T14:30:30.886Z,63.96
2022-09-26T14:33:14.137Z,61.91
2022-09-26T14:35:44.663Z,59.39
2022-09-26T14:38:21.896Z,61.00
2022-09-26T14:40:59.101Z,61.36
2022-09-26T14:43:33.501Z,61.70
2022-09-26T14:46:24.036Z,59.33
2022-09-26T14:49:04.466Z,57.42
2022-09-26T14:51:38.199Z,60.99
2022-09-26T14:54:26.650Z,61.81
2022-09-26T14:57:05.948Z,62.11
2022-09-26T14:59:35.813Z,61.43
2022-09-26T15:02:35.478Z,64.15
2022-09-26T15:05:26.005Z,62.24
2022-09-26T15:07:58.112Z,64.03
2022-09-26T15:10:42.387Z,60.99
2022-09-26T15:13:38.615Z,61.98
2022-09-26T15:16:27.994Z,60.00
2022-09-26T15:19:14.696Z,59.15
2022-09-26T15:21:50.289Z,58.16
2022-09-26T15:24:31.125Z,56.72
2022-09-26T15:27:28.277Z,57.58
2022-09-26T15:30:17.177Z,57.11
2022-09-26T15:32:51.578Z,55.27
2022-09-26T15:35:21.632Z,55.49
2022-09-26T15:37:51.432Z,52.25
2022-09-26T15:40:26.821Z,56.09
2022-09-26T15:43:23.399Z,56.90
2022-09-26T15:46:05.811Z,59.64
2022-09-26T15:48:45.551Z,56.96
2022-09-26T15:51:26.689Z,58.94
2022-09-26T15:54:01.917Z,60.32
2022-09-26T15:56:39.838Z,57.05
2022-09-26T15:59:27.534Z,61.21
2022-09-26T16:01:57.938Z,57.29
2022-09-26T16:04:30.816Z,57.00
2022-09-26T16:07:21.743Z,58.59
2022-09-26T16:09:53.054Z,57.17
2022-09-26T16:12:32.862Z,55.63
2022-09-26T16:15:05.277Z,56.11
2022-09-26T16:17:39.861Z,50.46
2022-09-26T16:20:19.990Z,52.36
2022-09-26T16:23:04.136Z,52.88
2022-09-26T16:25:49.174Z,54.43
2022-09-26T16:28:20.084Z,58.02
2022-09-26T16:31:09.500Z,60.20
2022-09-26T16:33:43.634Z,57.86
2022-09-26T16:36:24.705Z,56.73
2022-09-26T16:39:06.992Z,54.31
2022-09-26T16:42:03.707Z,48.50
2022-09-26T16:44:37.326Z,47.63
2022-09-26T16:47:27.646Z,52.25
2022-09-26T16:49:57.569Z,52.07
2022-09-26T16:52:37.761Z,56.02
2022-09-26T16:55:08.312Z,59.24
2022-09-26T16:57:52.668Z,52.51
2022-09-26T17:00:44.816Z,51.46
2022-09-26T17:03:37.676Z,52.27
2022-09-26T17:06:07.735Z,52.09
2022-09-26T17:08:37.851Z,51.99
2022-09-26T17:11:16.499Z,52.83
2022-09-26T17:13:48.394Z,51.94
2022-09-26T17:16:18.675Z,51.13
2022-09-26T17:18:48.480Z,51.29
2022-09-26T17:21:18.269Z,51.28
2022-09-26T17:23:49.979Z,50.67
2022-09-26T17:26:22.854Z,49.10
2022-09-26T17:28:54.816Z,49.34
2022-09-26T17:31:25.073Z,49.34
2022-09-26T17:33:55.944Z,49.77
2022-09-26T17:36:29.942Z,50.96
2022-09-26T17:39:01.660Z,50.75
2022-09-26T17:41:33.771Z,49.87
2022-09-26T17:44:03.617Z,54.52
2022-09-26T17:46:33.532Z,48.21
2022-09-26T17:49:06.361Z,47.44
2022-09-26T17:51:37.383Z,48.16
2022-09-26T17:54:09.050Z,49.93
2022-09-26T17:56:39.096Z,48.63
2022-09-26T17:59:24.311Z,51.84
2022-09-26T18:02:07.011Z,54.59
2022-09-26T18:04:37.315Z,53.96
2022-09-26T18:07:07.089Z,47.74
2022-09-26T18:09:37.342Z,48.67
2022-09-26T18:12:10.087Z,49.22
2022-09-26T18:14:42.141Z,51.08
2022-09-26T18:17:19.579Z,48.64
2022-09-26T18:19:51.648Z,49.93
2022-09-26T18:22:28.622Z,46.33
2022-09-26T18:25:05.840Z,46.03
2022-09-26T18:27:45.854Z,46.39
2022-09-26T18:30:16.941Z,49.12
2022-09-26T18:32:52.394Z,47.65
2022-09-26T18:35:28.457Z,45.95
2022-09-26T18:37:59.175Z,47.84
2022-09-26T18:40:31.192Z,45.91
2022-09-26T18:43:01.492Z,45.53
2022-09-26T18:45:37.937Z,48.30
2022-09-26T18:48:09.386Z,49.50
2022-09-26T18:50:40.804Z,48.35
2022-09-26T18:53:23.255Z,51.59
2022-09-26T18:56:11.304Z,50.69
2022-09-26T18:58:41.517Z,50.76
2022-09-26T19:01:17.549Z,50.92
2022-09-26T19:03:49.618Z,51.63
2022-09-26T19:06:21.167Z,49.24
2022-09-26T19:09:03.262Z,50.35
2022-09-26T19:11:35.700Z,47.00
2022-09-26T19:14:19.676Z,46.12
2022-09-26T19:16:51.494Z,42.73
2022-09-26T19:19:22.571Z,40.00
2022-09-26T19:21:54.279Z,42.77
2022-09-26T19:24:27.494Z,39.30
2022-09-26T19:27:06.499Z,39.47
2022-09-26T19:29:44.828Z,43.00
2022-09-26T19:32:25.724Z,42.06
2022-09-26T19:34:58.609Z,43.43
2022-09-26T19:37:29.114Z,48.03
2022-09-26T19:39:59.234Z,41.84
2022-09-26T19:42:28.954Z,40.96
2022-09-26T19:45:00.303Z,42.46
2022-09-26T19:47:34.517Z,51.89
2022-09-26T19:50:05.336Z,56.09
2022-09-26T19:52:35.661Z,56.83
2022-09-26T19:55:13.479Z,57.78
2022-09-26T19:57:43.664Z,61.19
2022-09-26T20:00:14.281Z,54.33
2022-09-26T20:02:44.780Z,51.46
2022-09-26T20:05:22.331Z,54.69
2022-09-26T20:07:54.619Z,54.75
2022-09-26T20:10:28.545Z,55.09
2022-09-26T20:12:58.618Z,55.36
2022-09-26T20:15:28.348Z,57.53
2022-09-26T20:17:59.552Z,58.00
2022-09-26T20:20:29.754Z,56.51
2022-09-26T20:23:00.018Z,57.29
2022-09-26T20:25:34.099Z,57.95
2022-09-26T20:28:04.113Z,54.14
2022-09-26T20:30:51.879Z,55.36
2022-09-26T20:33:23.853Z,53.63
2022-09-26T20:36:05.896Z,52.13
2022-09-26T20:39:04.271Z,53.68
2022-09-26T20:41:41.561Z,55.43
2022-09-26T20:44:17.002Z,58.75
2022-09-26T20:46:51.389Z,61.39
2022-09-26T20:49:28.443Z,62.73
2022-09-26T20:52:01.555Z,63.60
2022-09-26T20:54:33.894Z,64.65
2022-09-26T20:57:03.950Z,65.79
2022-09-26T20:59:36.169Z,69.48
2022-09-26T21:02:32.033Z,69.75
2022-09-26T21:05:02.993Z,72.93
2022-09-26T21:07:34.204Z,74.25
2022-09-26T21:10:10.650Z,74.91
2022-09-26T21:12:41.025Z,74.98
2022-09-26T21:15:13.825Z,76.62
2022-09-26T21:17:44.410Z,77.32
2022-09-26T21:20:27.597Z,77.85
2022-09-26T21:23:20.469Z,77.88
2022-09-26T21:25:51.519Z,78.28
2022-09-26T21:28:27.671Z,79.53
2022-09-26T21:31:04.471Z,80.27
2022-09-26T21:33:35.981Z,80.56
2022-09-26T21:36:09.524Z,80.73
2022-09-26T21:38:41.682Z,80.82
2022-09-26T21:41:12.938Z,80.99
2022-09-26T21:43:47.602Z,80.93
2022-09-26T21:46:18.529Z,81.47
2022-09-26T21:48:49.509Z,82.27
2022-09-26T21:51:20.365Z,82.46
2022-09-26T21:53:57.671Z,83.18
2022-09-26T21:56:32.727Z,83.44
2022-09-26T21:59:03.144Z,82.32
2022-09-26T22:01:32.986Z,81.76
2022-09-26T22:04:02.973Z,81.96
2022-09-26T22:06:34.405Z,82.56
2022-09-26T22:09:04.340Z,82.99
2022-09-26T22:11:34.150Z,82.85
2022-09-26T22:14:04.392Z,83.94
2022-09-26T22:16:34.524Z,84.54
2022-09-26T22:19:06.293Z,85.13
2022-09-26T22:21:36.512Z,85.41
2022-09-26T22:24:07.253Z,85.40
2022-09-26T22:26:37.093Z,85.73
2022-09-26T22:29:06.845Z,86.01
2022-09-26T22:31:37.236Z,86.19
2022-09-26T22:34:07.077Z,86.29
2022-09-26T22:36:37.099Z,86.59
2022-09-26T22:39:07.496Z,86.65
2022-09-26T22:41:37.241Z,87.19
2022-09-26T22:44:06.936Z,87.69
2022-09-26T22:46:37.580Z,87.54
2022-09-26T22:49:07.356Z,87.76
2022-09-26T22:51:37.050Z,87.95
2022-09-26T22:54:07.350Z,87.96
2022-09-26T22:56:37.056Z,87.78
2022-09-26T22:59:06.985Z,88.50
2022-09-26T23:01:36.813Z,89.16
2022-09-26T23:04:06.672Z,89.24
2022-09-26T23:06:36.360Z,89.14
2022-09-26T23:09:06.561Z,89.17
2022-09-26T23:11:36.267Z,89.47
2022-09-26T23:14:06.018Z,89.71
2022-09-26T23:16:35.904Z,89.87
2022-09-26T23:19:05.731Z,90.15
2022-09-26T23:21:35.423Z,90.03
2022-09-26T23:24:05.345Z,90.19
2022-09-26T23:26:35.010Z,90.12
2022-09-26T23:29:04.807Z,90.22
2022-09-26T23:31:34.495Z,90.24
2022-09-26T23:34:04.369Z,90.41
2022-09-26T23:36:34.078Z,90.74
2022-09-26T23:39:03.832Z,90.82
2022-09-26T23:41:33.742Z,90.72
2022-09-26T23:44:03.732Z,90.91
2022-09-26T23:46:33.501Z,90.67
2022-09-26T23:49:03.254Z,90.69
2022-09-26T23:51:34.293Z,90.80
2022-09-26T23:54:04.346Z,91.02
2022-09-26T23:56:34.032Z,90.95
2022-09-26T23:59:04.068Z,91.37
